createdAt,value
2022-07-29T00:00:51.969Z,96361.31
2022-07-29T00:03:18.493Z,96346.72
2022-07-29T00:05:44.975Z,96354.41
2022-07-29T00:08:12.715Z,96347.88
2022-07-29T00:10:39.234Z,96343.59
2022-07-29T00:13:05.645Z,96352.78
2022-07-29T00:15:32.040Z,96348.34
2022-07-29T00:17:58.470Z,96356.38
2022-07-29T00:20:24.872Z,96361.84
2022-07-29T00:22:51.269Z,96358.03
2022-07-29T00:25:17.686Z,96348.34
2022-07-29T00:27:44.084Z,96349.50
2022-07-29T00:30:10.506Z,96344.13
2022-07-29T00:32:36.912Z,96339.09
2022-07-29T00:35:03.312Z,96339.94
2022-07-29T00:37:29.715Z,96337.19
2022-07-29T00:39:56.126Z,96340.25
2022-07-29T00:42:22.620Z,96339.41
2022-07-29T00:44:49.015Z,96335.19
2022-07-29T00:47:15.415Z,96334.88
2022-07-29T00:49:41.828Z,96334.06
2022-07-29T00:52:08.234Z,96336.41
2022-07-29T00:54:34.657Z,96335.63
2022-07-29T00:57:01.065Z,96344.13
2022-07-29T00:59:35.023Z,96341.03
2022-07-29T01:02:01.917Z,96347.16
2022-07-29T01:04:28.383Z,96346.38
2022-07-29T01:06:54.791Z,96348.69
2022-07-29T01:09:34.225Z,96358.28
2022-07-29T01:12:07.593Z,96347.97
2022-07-29T01:14:34.886Z,96339.88
2022-07-29T01:17:01.288Z,96344.84
2022-07-29T01:19:27.698Z,96340.63
2022-07-29T01:21:54.122Z,96342.16
2022-07-29T01:24:20.529Z,96340.66
2022-07-29T01:26:46.967Z,96343.72
2022-07-29T01:29:13.382Z,96348.34
2022-07-29T01:31:40.343Z,96351.41
2022-07-29T01:34:20.188Z,96349.47
2022-07-29T01:36:46.689Z,96352.94
2022-07-29T01:39:13.100Z,96358.34
2022-07-29T01:41:39.514Z,96363.31
2022-07-29T01:44:06.022Z,96354.16
2022-07-29T01:46:34.202Z,96350.38
2022-07-29T01:49:00.744Z,96349.53
2022-07-29T01:51:27.240Z,96353.72
2022-07-29T01:53:53.650Z,96349.84
2022-07-29T01:56:20.065Z,96350.66
2022-07-29T01:58:46.479Z,96368.44
2022-07-29T02:01:12.952Z,96371.19
2022-07-29T02:03:39.370Z,96375.03
2022-07-29T02:06:05.791Z,96372.31
2022-07-29T02:08:32.209Z,96365.34
2022-07-29T02:10:58.612Z,96369.91
2022-07-29T02:13:25.012Z,96368.78
2022-07-29T02:15:51.539Z,96366.09
2022-07-29T02:18:18.005Z,96369.53
2022-07-29T02:20:44.414Z,96364.09
2022-07-29T02:23:10.828Z,96353.31
2022-07-29T02:25:38.348Z,96353.13
2022-07-29T02:28:04.948Z,96354.72
2022-07-29T02:30:31.356Z,96353.47
2022-07-29T02:32:57.780Z,96355.78
2022-07-29T02:35:24.186Z,96368.59
2022-07-29T02:37:50.585Z,96374.75
2022-07-29T02:40:16.994Z,96378.84
2022-07-29T02:42:43.402Z,96376.19
2022-07-29T02:45:09.816Z,96369.22
2022-07-29T02:47:42.022Z,96363.78
2022-07-29T02:50:08.680Z,96357.56
2022-07-29T02:52:35.104Z,96361.53
2022-07-29T02:55:01.634Z,96366.97
2022-07-29T02:57:28.032Z,96368.03
2022-07-29T02:59:54.439Z,96371.09
2022-07-29T03:02:20.866Z,96372.25
2022-07-29T03:04:47.297Z,96368.00
2022-07-29T03:07:13.726Z,96369.50
2022-07-29T03:09:40.229Z,96375.31
2022-07-29T03:12:06.637Z,96377.38
2022-07-29T03:14:33.036Z,96367.81
2022-07-29T03:16:59.447Z,96367.47
2022-07-29T03:19:25.854Z,96357.69
2022-07-29T03:21:52.283Z,96355.34
2022-07-29T03:24:18.940Z,96357.72
2022-07-29T03:26:45.698Z,96363.09
2022-07-29T03:29:13.416Z,96370.03
2022-07-29T03:31:40.557Z,96367.28
2022-07-29T03:34:10.155Z,96378.44
2022-07-29T03:36:36.570Z,96377.66
2022-07-29T03:39:02.990Z,96386.09
2022-07-29T03:41:29.399Z,96391.94
2022-07-29T03:43:55.810Z,96389.69
2022-07-29T03:46:22.281Z,96369.63
2022-07-29T03:48:48.755Z,96373.81
2022-07-29T03:51:15.184Z,96372.69
2022-07-29T03:53:41.608Z,96374.19
2022-07-29T03:56:08.028Z,96373.06
2022-07-29T03:58:34.430Z,96380.91
2022-07-29T04:01:00.847Z,96382.84
2022-07-29T04:03:27.297Z,96390.59
2022-07-29T04:05:53.738Z,96382.16
2022-07-29T04:08:20.155Z,96385.19
2022-07-29T04:10:46.568Z,96395.56
2022-07-29T04:13:12.980Z,96391.69
2022-07-29T04:15:39.435Z,96392.44
2022-07-29T04:18:05.871Z,96395.44
2022-07-29T04:20:32.280Z,96393.09
2022-07-29T04:22:58.668Z,96402.34
2022-07-29T04:25:25.092Z,96396.94
2022-07-29T04:27:51.493Z,96386.91
2022-07-29T04:30:17.888Z,96384.25
2022-07-29T04:32:44.298Z,96393.84
2022-07-29T04:35:10.706Z,96396.13
2022-07-29T04:37:37.128Z,96398.81
2022-07-29T04:40:03.550Z,96410.38
2022-07-29T04:42:29.974Z,96415.00
2022-07-29T04:44:56.398Z,96406.16
2022-07-29T04:47:22.802Z,96406.91
2022-07-29T04:49:49.219Z,96400.81
2022-07-29T04:52:15.653Z,96403.47
2022-07-29T04:54:42.070Z,96404.25
2022-07-29T04:57:08.469Z,96403.50
2022-07-29T04:59:34.881Z,96406.19
2022-07-29T05:02:01.384Z,96406.16
2022-07-29T05:04:27.804Z,96405.41
2022-07-29T05:06:54.216Z,96405.03
2022-07-29T05:09:20.610Z,96406.16
2022-07-29T05:11:47.011Z,96410.75
2022-07-29T05:14:13.858Z,96413.06
2022-07-29T05:16:40.490Z,96419.97
2022-07-29T05:19:09.724Z,96416.13
2022-07-29T05:21:40.169Z,96421.91
2022-07-29T05:24:06.571Z,96422.66
2022-07-29T05:26:32.988Z,96428.44
2022-07-29T05:28:59.398Z,96437.28
2022-07-29T05:31:25.864Z,96433.44
2022-07-29T05:33:52.340Z,96427.28
2022-07-29T05:36:18.747Z,96430.75
2022-07-29T05:38:45.153Z,96434.97
2022-07-29T05:41:11.560Z,96434.59
2022-07-29T05:43:37.979Z,96429.97
2022-07-29T05:46:04.449Z,96431.53
2022-07-29T05:48:30.918Z,96428.81
2022-07-29T05:50:57.331Z,96436.13
2022-07-29T05:53:23.742Z,96434.19
2022-07-29T05:55:50.249Z,96448.41
2022-07-29T05:58:16.659Z,96443.06
2022-07-29T06:00:43.063Z,96450.34
2022-07-29T06:03:09.482Z,96462.34
2022-07-29T06:05:35.903Z,96460.06
2022-07-29T06:08:02.374Z,96458.53
2022-07-29T06:10:28.930Z,96457.38
2022-07-29T06:12:55.366Z,96456.97
2022-07-29T06:15:21.788Z,96448.91
2022-07-29T06:17:59.888Z,96451.16
2022-07-29T06:20:27.427Z,96452.72
2022-07-29T06:22:53.868Z,96456.16
2022-07-29T06:25:20.280Z,96459.59
2022-07-29T06:27:46.681Z,96463.06
2022-07-29T06:30:13.088Z,96458.06
2022-07-29T06:32:43.040Z,96459.59
2022-07-29T06:35:37.542Z,96467.72
2022-07-29T06:37:56.257Z,96470.00
2022-07-29T06:40:26.210Z,96468.44
2022-07-29T06:42:52.682Z,96469.63
2022-07-29T06:45:19.090Z,96481.13
2022-07-29T06:47:45.500Z,96484.56
2022-07-29T06:50:13.185Z,96471.91
2022-07-29T06:52:39.599Z,96478.06
2022-07-29T06:55:06.018Z,96487.66
2022-07-29T06:57:32.488Z,96491.13
2022-07-29T06:59:58.904Z,96487.66
2022-07-29T07:02:25.334Z,96484.94
2022-07-29T07:04:51.819Z,96488.81
2022-07-29T07:07:18.227Z,96491.09
2022-07-29T07:09:44.720Z,96485.72
2022-07-29T07:12:11.120Z,96488.41
2022-07-29T07:14:37.523Z,96484.19
2022-07-29T07:17:04.012Z,96485.38
2022-07-29T07:19:30.478Z,96474.25
2022-07-29T07:21:56.883Z,96470.00
2022-07-29T07:24:23.523Z,96471.16
2022-07-29T07:26:49.938Z,96474.63
2022-07-29T07:29:16.337Z,96481.56
2022-07-29T07:31:42.805Z,96485.38
2022-07-29T07:34:09.269Z,96483.81
2022-07-29T07:36:35.676Z,96481.56
2022-07-29T07:39:02.087Z,96475.03
2022-07-29T07:41:32.435Z,96478.47
2022-07-29T07:43:59.125Z,96478.47
2022-07-29T07:46:25.587Z,96481.94
2022-07-29T07:48:52.089Z,96484.63
2022-07-29T07:51:18.520Z,96488.84
2022-07-29T07:53:44.943Z,96486.88
2022-07-29T07:56:12.524Z,96492.25
2022-07-29T07:58:39.353Z,96494.19
2022-07-29T08:01:05.833Z,96491.91
2022-07-29T08:03:32.274Z,96493.03
2022-07-29T08:05:58.693Z,96495.31
2022-07-29T08:08:25.105Z,96485.34
2022-07-29T08:10:51.512Z,96487.28
2022-07-29T08:13:17.909Z,96483.47
2022-07-29T08:15:44.339Z,96486.16
2022-07-29T08:18:10.778Z,96493.81
2022-07-29T08:20:37.194Z,96483.06
2022-07-29T08:23:03.602Z,96490.75
2022-07-29T08:25:30.037Z,96489.19
2022-07-29T08:27:56.552Z,96496.88
2022-07-29T08:30:22.962Z,96503.00
2022-07-29T08:32:54.214Z,96503.38
2022-07-29T08:35:21.158Z,96508.81
2022-07-29T08:37:47.577Z,96509.16
2022-07-29T08:40:14.004Z,96506.84
2022-07-29T08:42:40.404Z,96515.69
2022-07-29T08:45:06.800Z,96503.81
2022-07-29T08:47:33.236Z,96510.31
2022-07-29T08:49:59.644Z,96501.09
2022-07-29T08:52:26.047Z,96499.56
2022-07-29T08:54:52.456Z,96504.56
2022-07-29T08:57:18.948Z,96503.03
2022-07-29T08:59:46.627Z,96503.03
2022-07-29T09:02:13.621Z,96500.31
2022-07-29T09:04:40.037Z,96493.41
2022-07-29T09:07:06.437Z,96495.69
2022-07-29T09:09:32.840Z,96500.69
2022-07-29T09:11:59.287Z,96501.84
2022-07-29T09:14:25.707Z,96496.88
2022-07-29T09:16:54.220Z,96501.47
2022-07-29T09:19:20.896Z,96511.44
2022-07-29T09:21:47.311Z,96502.22
2022-07-29T09:24:13.725Z,96504.53
2022-07-29T09:26:40.139Z,96499.16
2022-07-29T09:29:06.554Z,96499.88
2022-07-29T09:31:32.986Z,96506.06
2022-07-29T09:33:59.436Z,96504.16
2022-07-29T09:36:25.837Z,96511.81
2022-07-29T09:38:52.253Z,96504.53
2022-07-29T09:41:18.669Z,96505.69
2022-07-29T09:43:45.059Z,96506.47
2022-07-29T09:46:12.332Z,96497.66
2022-07-29T09:48:38.953Z,96502.25
2022-07-29T09:51:05.456Z,96500.69
2022-07-29T09:53:31.878Z,96497.63
2022-07-29T09:55:58.289Z,96506.44
2022-07-29T09:58:24.714Z,96507.97
2022-07-29T10:00:51.219Z,96507.22
2022-07-29T10:03:17.757Z,96507.59
2022-07-29T10:05:44.200Z,96511.47
2022-07-29T10:08:10.606Z,96511.47
2022-07-29T10:10:37.030Z,96505.34
2022-07-29T10:13:07.940Z,96508.41
2022-07-29T10:15:36.298Z,96504.91
2022-07-29T10:18:02.702Z,96512.22
2022-07-29T10:20:29.112Z,96504.50
2022-07-29T10:22:55.512Z,96506.81
2022-07-29T10:25:21.920Z,96506.78
2022-07-29T10:27:48.338Z,96508.72
2022-07-29T10:30:14.782Z,96514.13
2022-07-29T10:32:41.199Z,96514.50
2022-07-29T10:35:07.608Z,96505.28
2022-07-29T10:37:35.996Z,96516.06
2022-07-29T10:40:02.772Z,96506.84
2022-07-29T10:42:33.408Z,96512.59
2022-07-29T10:45:00.813Z,96506.03
2022-07-29T10:47:27.227Z,96505.28
2022-07-29T10:49:53.637Z,96503.34
2022-07-29T10:52:20.055Z,96501.03
2022-07-29T10:54:53.094Z,96509.09
2022-07-29T10:57:19.506Z,96512.19
2022-07-29T10:59:47.200Z,96512.19
2022-07-29T11:02:36.561Z,96511.41
2022-07-29T11:05:00.025Z,96524.47
2022-07-29T11:07:26.425Z,96524.09
2022-07-29T11:10:12.433Z,96532.13
2022-07-29T11:12:40.318Z,96539.84
2022-07-29T11:15:06.729Z,96543.69
2022-07-29T11:17:47.247Z,96543.66
2022-07-29T11:20:18.713Z,96551.72
2022-07-29T11:22:47.359Z,96554.06
2022-07-29T11:25:13.856Z,96554.44
2022-07-29T11:27:43.286Z,96553.69
2022-07-29T11:30:12.293Z,96548.69
2022-07-29T11:32:38.738Z,96557.13
2022-07-29T11:35:17.235Z,96562.56
2022-07-29T11:37:50.761Z,96569.47
2022-07-29T11:40:21.661Z,96562.53
2022-07-29T11:42:48.385Z,96561.75
2022-07-29T11:45:41.849Z,96566.72
2022-07-29T11:48:28.773Z,96577.47
2022-07-29T11:50:51.050Z,96584.78
2022-07-29T11:53:17.761Z,96582.06
2022-07-29T11:55:50.853Z,96587.47
2022-07-29T11:58:18.466Z,96585.53
2022-07-29T12:00:45.085Z,96584.41
2022-07-29T12:03:11.552Z,96595.16
2022-07-29T12:05:38.000Z,96605.53
2022-07-29T12:08:04.429Z,96616.28
2022-07-29T12:10:32.157Z,96629.75
2022-07-29T12:12:59.962Z,96648.97
2022-07-29T12:15:46.030Z,96638.19
2022-07-29T12:18:12.774Z,96639.72
2022-07-29T12:20:39.198Z,96642.81
2022-07-29T12:23:06.845Z,96632.44
2022-07-29T12:25:34.031Z,96631.66
2022-07-29T12:28:01.152Z,96639.34
2022-07-29T12:30:27.554Z,96642.81
2022-07-29T12:32:53.964Z,96650.09
2022-07-29T12:35:20.385Z,96651.25
2022-07-29T12:37:46.799Z,96661.66
2022-07-29T12:40:13.208Z,96666.25
2022-07-29T12:42:39.621Z,96672.41
2022-07-29T12:45:06.061Z,96670.84
2022-07-29T12:47:32.563Z,96675.88
2022-07-29T12:49:58.975Z,96675.47
2022-07-29T12:52:25.394Z,96677.38
2022-07-29T12:54:52.094Z,96685.84
2022-07-29T12:57:20.305Z,96681.22
2022-07-29T12:59:46.908Z,96678.94
2022-07-29T13:02:13.412Z,96679.69
2022-07-29T13:04:39.864Z,96675.09
2022-07-29T13:07:06.261Z,96675.09
2022-07-29T13:09:32.667Z,96684.69
2022-07-29T13:11:59.130Z,96687.75
2022-07-29T13:14:25.611Z,96690.84
2022-07-29T13:16:52.030Z,96687.00
2022-07-29T13:19:18.453Z,96688.16
2022-07-29T13:21:44.953Z,96685.06
2022-07-29T13:24:11.359Z,96687.00
2022-07-29T13:26:37.771Z,96691.59
2022-07-29T13:29:07.071Z,96689.28
2022-07-29T13:31:33.484Z,96678.13
2022-07-29T13:33:59.884Z,96681.97
2022-07-29T13:36:26.299Z,96681.97
2022-07-29T13:38:52.718Z,96682.75
2022-07-29T13:41:19.139Z,96685.84
2022-07-29T13:43:45.607Z,96685.47
2022-07-29T13:46:16.505Z,96689.28
2022-07-29T13:48:43.065Z,96682.41
2022-07-29T13:51:09.511Z,96685.88
2022-07-29T13:53:35.925Z,96683.16
2022-07-29T13:56:02.337Z,96679.72
2022-07-29T13:58:28.738Z,96685.09
2022-07-29T14:00:55.220Z,96680.47
2022-07-29T14:03:21.696Z,96683.16
2022-07-29T14:05:48.114Z,96677.78
2022-07-29T14:08:14.717Z,96673.94
2022-07-29T14:10:41.116Z,96667.38
2022-07-29T14:13:20.799Z,96671.22
2022-07-29T14:15:51.882Z,96673.56
2022-07-29T14:18:18.293Z,96670.44
2022-07-29T14:20:44.688Z,96668.94
2022-07-29T14:23:11.109Z,96664.72
2022-07-29T14:25:39.385Z,96668.16
2022-07-29T14:28:08.462Z,96669.31
2022-07-29T14:30:34.966Z,96672.81
2022-07-29T14:33:01.380Z,96664.31
2022-07-29T14:35:27.780Z,96663.94
2022-07-29T14:37:54.264Z,96658.56
2022-07-29T14:40:20.661Z,96653.91
2022-07-29T14:42:47.057Z,96657.00
2022-07-29T14:45:13.470Z,96657.00
2022-07-29T14:47:39.870Z,96654.28
2022-07-29T14:50:06.283Z,96647.78
2022-07-29T14:52:32.705Z,96645.84
2022-07-29T14:54:59.115Z,96636.63
2022-07-29T14:57:25.530Z,96636.63
2022-07-29T14:59:52.045Z,96638.56
2022-07-29T15:02:18.516Z,96643.94
2022-07-29T15:04:44.960Z,96638.91
2022-07-29T15:07:11.372Z,96639.69
2022-07-29T15:09:40.211Z,96635.03
2022-07-29T15:12:16.146Z,96629.28
2022-07-29T15:14:42.549Z,96632.75
2022-07-29T15:17:09.011Z,96636.63
2022-07-29T15:19:35.883Z,96621.22
2022-07-29T15:22:02.606Z,96621.97
2022-07-29T15:24:29.267Z,96623.50
2022-07-29T15:26:55.747Z,96623.91
2022-07-29T15:29:22.166Z,96618.13
2022-07-29T15:31:48.637Z,96612.75
2022-07-29T15:34:15.084Z,96621.97
2022-07-29T15:36:52.014Z,96611.94
2022-07-29T15:39:19.121Z,96613.88
2022-07-29T15:41:45.527Z,96608.50
2022-07-29T15:44:11.938Z,96610.41
2022-07-29T15:46:38.354Z,96603.84
2022-07-29T15:49:04.821Z,96605.38
2022-07-29T15:51:31.247Z,96601.16
2022-07-29T15:53:57.653Z,96605.38
2022-07-29T15:56:24.058Z,96610.75
2022-07-29T15:58:50.468Z,96606.56
2022-07-29T16:01:16.947Z,96605.38
2022-07-29T16:03:46.249Z,96609.25
2022-07-29T16:06:13.103Z,96603.47
2022-07-29T16:08:39.514Z,96606.16
2022-07-29T16:11:05.905Z,96603.47
2022-07-29T16:13:32.314Z,96611.16
2022-07-29T16:16:06.623Z,96608.06
2022-07-29T16:18:33.057Z,96610.00
2022-07-29T16:20:59.472Z,96603.84
2022-07-29T16:23:25.891Z,96613.84
2022-07-29T16:26:00.822Z,96605.00
2022-07-29T16:28:27.745Z,96601.16
2022-07-29T16:30:54.157Z,96601.56
2022-07-29T16:33:20.550Z,96595.38
2022-07-29T16:35:46.961Z,96608.06
2022-07-29T16:38:13.360Z,96603.84
2022-07-29T16:40:39.772Z,96605.00
2022-07-29T16:43:06.556Z,96609.25
2022-07-29T16:45:43.933Z,96604.25
2022-07-29T16:48:12.742Z,96611.94
2022-07-29T16:50:39.149Z,96610.41
2022-07-29T16:53:05.574Z,96607.34
2022-07-29T16:55:32.003Z,96607.34
2022-07-29T16:57:58.406Z,96605.78
2022-07-29T17:00:24.821Z,96611.97
2022-07-29T17:02:51.230Z,96612.34
2022-07-29T17:05:17.630Z,96611.97
2022-07-29T17:07:44.038Z,96614.28
2022-07-29T17:10:10.452Z,96615.09
2022-07-29T17:12:36.856Z,96621.25
2022-07-29T17:15:03.252Z,96618.94
2022-07-29T17:17:38.742Z,96617.00
2022-07-29T17:20:06.014Z,96620.50
2022-07-29T17:22:32.445Z,96616.28
2022-07-29T17:24:58.852Z,96619.34
2022-07-29T17:27:25.263Z,96624.72
2022-07-29T17:29:51.681Z,96629.34
2022-07-29T17:32:18.119Z,96623.94
2022-07-29T17:34:44.516Z,96629.34
2022-07-29T17:37:10.926Z,96627.38
2022-07-29T17:39:37.337Z,96628.19
2022-07-29T17:42:03.737Z,96625.13
2022-07-29T17:44:30.177Z,96627.78
2022-07-29T17:46:57.081Z,96632.78
2022-07-29T17:49:23.765Z,96635.88
2022-07-29T17:51:50.279Z,96634.25
2022-07-29T17:54:16.704Z,96629.25
2022-07-29T17:56:43.122Z,96635.03
2022-07-29T17:59:09.534Z,96630.03
2022-07-29T18:01:35.980Z,96631.19
2022-07-29T18:04:02.398Z,96628.13
2022-07-29T18:06:28.809Z,96628.88
2022-07-29T18:08:55.225Z,96628.16
2022-07-29T18:11:24.445Z,96630.44
2022-07-29T18:13:50.854Z,96630.81
2022-07-29T18:16:17.347Z,96637.72
2022-07-29T18:18:43.811Z,96641.56
2022-07-29T18:21:10.213Z,96643.88
2022-07-29T18:23:36.634Z,96640.06
2022-07-29T18:26:03.032Z,96644.66
2022-07-29T18:28:29.438Z,96638.13
2022-07-29T18:30:55.909Z,96649.66
2022-07-29T18:33:22.809Z,96648.91
2022-07-29T18:35:49.401Z,96652.41
2022-07-29T18:38:15.821Z,96655.50
2022-07-29T18:40:42.243Z,96655.13
2022-07-29T18:43:08.690Z,96659.69
2022-07-29T18:45:35.097Z,96668.94
2022-07-29T18:48:01.502Z,96663.94
2022-07-29T18:50:29.529Z,96656.25
2022-07-29T18:52:56.332Z,96658.53
2022-07-29T18:55:22.743Z,96665.47
2022-07-29T18:57:54.588Z,96657.00
2022-07-29T19:00:22.917Z,96660.88
2022-07-29T19:02:50.127Z,96672.78
2022-07-29T19:05:16.688Z,96660.09
2022-07-29T19:07:43.093Z,96671.22
2022-07-29T19:10:09.522Z,96668.53
2022-07-29T19:12:35.934Z,96672.38
2022-07-29T19:15:02.413Z,96676.25
2022-07-29T19:17:28.811Z,96689.28
2022-07-29T19:19:55.212Z,96695.09
2022-07-29T19:22:21.636Z,96680.84
2022-07-29T19:24:48.046Z,96687.00
2022-07-29T19:27:14.449Z,96693.56
2022-07-29T19:29:40.959Z,96690.47
2022-07-29T19:32:07.382Z,96696.63
2022-07-29T19:34:33.820Z,96693.53
2022-07-29T19:37:00.669Z,96712.75
2022-07-29T19:39:32.006Z,96707.38
2022-07-29T19:42:03.402Z,96715.84
2022-07-29T19:44:30.048Z,96718.53
2022-07-29T19:46:56.899Z,96724.28
2022-07-29T19:49:23.630Z,96730.03
2022-07-29T19:51:50.119Z,96726.59
2022-07-29T19:54:16.531Z,96729.66
2022-07-29T19:56:43.024Z,96731.97
2022-07-29T19:59:09.416Z,96743.09
2022-07-29T20:01:35.902Z,96746.56
2022-07-29T20:04:02.384Z,96755.00
2022-07-29T20:06:28.780Z,96748.84
2022-07-29T20:08:58.599Z,96751.19
2022-07-29T20:11:25.397Z,96751.94
2022-07-29T20:13:51.814Z,96756.16
2022-07-29T20:16:18.304Z,96764.63
2022-07-29T20:18:44.772Z,96764.22
2022-07-29T20:21:11.175Z,96767.66
2022-07-29T20:23:37.583Z,96761.53
2022-07-29T20:26:08.757Z,96766.50
2022-07-29T20:28:36.007Z,96764.19
2022-07-29T20:31:02.485Z,96772.25
2022-07-29T20:33:28.927Z,96769.59
2022-07-29T20:35:55.324Z,96768.44
2022-07-29T20:38:21.729Z,96768.81
2022-07-29T20:40:48.129Z,96769.56
2022-07-29T20:43:14.563Z,96764.22
2022-07-29T20:45:40.985Z,96766.91
2022-07-29T20:48:08.351Z,96762.66
2022-07-29T20:50:34.977Z,96762.66
2022-07-29T20:53:01.384Z,96768.75
2022-07-29T20:55:27.841Z,96777.22
2022-07-29T20:57:54.265Z,96767.97
2022-07-29T21:00:20.675Z,96774.91
2022-07-29T21:02:47.157Z,96764.91
2022-07-29T21:05:13.599Z,96772.22
2022-07-29T21:07:40.013Z,96765.72
2022-07-29T21:10:06.415Z,96769.16
2022-07-29T21:12:32.831Z,96770.31
2022-07-29T21:14:59.243Z,96764.56
2022-07-29T21:17:25.651Z,96761.88
2022-07-29T21:19:52.075Z,96762.22
2022-07-29T21:22:18.485Z,96765.28
2022-07-29T21:24:44.910Z,96763.38
2022-07-29T21:27:20.793Z,96771.81
2022-07-29T21:29:47.853Z,96762.22
2022-07-29T21:32:14.336Z,96772.16
2022-07-29T21:34:54.137Z,96769.88
2022-07-29T21:37:20.559Z,96773.75
2022-07-29T21:39:46.977Z,96764.50
2022-07-29T21:42:13.412Z,96771.03
2022-07-29T21:44:39.821Z,96761.03
2022-07-29T21:47:06.211Z,96772.53
2022-07-29T21:49:32.630Z,96771.78
2022-07-29T21:51:59.039Z,96767.16
2022-07-29T21:54:26.077Z,96775.22
2022-07-29T21:56:54.425Z,96773.31
2022-07-29T21:59:20.824Z,96778.69
2022-07-29T22:01:47.356Z,96779.81
2022-07-29T22:04:13.878Z,96783.28
2022-07-29T22:06:40.294Z,96774.88
2022-07-29T22:09:06.704Z,96773.03
2022-07-29T22:11:33.118Z,96781.50
2022-07-29T22:13:59.516Z,96769.22
2022-07-29T22:16:25.990Z,96773.81
2022-07-29T22:18:52.426Z,96772.69
2022-07-29T22:21:18.828Z,96779.97
2022-07-29T22:23:45.244Z,96778.06
2022-07-29T22:26:11.643Z,96778.84
2022-07-29T22:28:38.042Z,96775.00
2022-07-29T22:31:04.515Z,96780.38
2022-07-29T22:33:30.986Z,96783.84
2022-07-29T22:35:57.395Z,96776.94
2022-07-29T22:38:23.796Z,96779.22
2022-07-29T22:40:50.627Z,96783.47
2022-07-29T22:43:17.249Z,96788.84
2022-07-29T22:45:43.668Z,96785.78
2022-07-29T22:48:10.131Z,96786.56
2022-07-29T22:50:36.546Z,96788.84
2022-07-29T22:53:02.970Z,96788.47
2022-07-29T22:55:29.368Z,96781.94
2022-07-29T22:57:55.772Z,96786.53
2022-07-29T23:00:22.199Z,96792.72
2022-07-29T23:02:48.601Z,96798.88
2022-07-29T23:05:14.988Z,96803.47
2022-07-29T23:07:41.410Z,96802.31
2022-07-29T23:10:07.823Z,96805.00
2022-07-29T23:12:34.254Z,96806.16
2022-07-29T23:15:00.648Z,96803.84
2022-07-29T23:17:27.048Z,96807.31
2022-07-29T23:19:53.464Z,96803.84
2022-07-29T23:22:19.877Z,96802.31
2022-07-29T23:24:46.291Z,96808.88
2022-07-29T23:27:12.816Z,96815.38
2022-07-29T23:29:39.248Z,96814.22
2022-07-29T23:32:05.658Z,96810.41
2022-07-29T23:34:32.077Z,96811.94
2022-07-29T23:36:58.972Z,96814.59
2022-07-29T23:39:25.614Z,96814.59
2022-07-29T23:41:52.028Z,96815.00
2022-07-29T23:44:18.426Z,96813.44
2022-07-29T23:46:44.909Z,96807.69
2022-07-29T23:49:11.439Z,96811.91
2022-07-29T23:51:37.851Z,96806.94
2022-07-29T23:54:04.272Z,96810.75
2022-07-29T23:56:30.683Z,96810.75
2022-07-29T23:58:57.089Z,96805.75
